Morelia, Mexico

10:06 PM CDT on August 28, 2015 (GMT -0500)
Gen Francisco J Mujica International | | Change Station
CLOSE
Current Station
Airport
Location: Morelia,
Elevation: 6014 ft
Nearby Weather Stations

Elev 6014 ft 19.85 °N, 101.03 °W | Updated 1 hour ago

Partly Cloudy
Partly Cloudy
66 °F
Feels Like 66 °F
N
8
Wind Variable Wind from NNE

Today
High -- | Low -- °F
--% Chance of Precip.
Yesterday
High -- | Low -- °F
Precip. -- in
7:27 AM 8:02 PM
Waxing Gibbous, 99% visible
Pressure 30.17 in
Visibility 7.0 miles
Clouds Few 3000 ft
Few 23000 ft
Dew Point 54 °F
Humidity 64%
Rainfall 0.00 in
Snow Depth Not available.
UV 0 out of 12
Pollen Not available.
Air Quality Not available.
Flu Activity Not available.
METAR MMMM 290148Z 02007KT 7SM FEW030 FEW230 19/12 A3017 RMK 8/508
Pressure 30.17 in
Visibility 7.0 miles
Clouds Few 3000 ft
Few 23000 ft
Dew Point 54 °F
Humidity 64%
Rainfall 0.00 in
Snow Depth Not available.
UV 0 out of 12
Pollen Not available.
Air Quality Not available.
Flu Activity Not available.
METAR MMMM 290148Z 02007KT 7SM FEW030 FEW230 19/12 A3017 RMK 8/508

10-Day Weather Forecast

×

Almanac

Astronomy

Aug. 28, 2015 Rise Set
Actual Time
Civil Twilight
Nautical Twilight
Astronomical Twilight
Moon
Length of Visible Light
Length of Day
Tomorrow will be .
, % of the Moon is Illuminated

Today's Extremes

Country Highs Country Lows

Community

WunderPhotos

Upload Photos

1,850,593 photos uploaded!

WunderBlogs® & News

Nearby

Air Quality

  Air Quality AQ Index Pollutant
Not available.

Snow Depth

Station Depth Elevation

Earthquake Activity

City Distance Mag. Time & Date
Minimum magnitude displayed is 2.5.

Coastal Water Temperatures

Place Temperature

Stations

Nearby Weather Stations

Station Location Temp. Windchill Dew Point Humidity Wind Precip. Elev Updated Type